createdAt,value
2022-09-26T00:01:29.355Z,100989.59
2022-09-26T00:03:59.081Z,100994.59
2022-09-26T00:06:28.605Z,100996.13
2022-09-26T00:08:56.556Z,100989.78
2022-09-26T00:11:30.874Z,100986.47
2022-09-26T00:14:03.183Z,100995.25
2022-09-26T00:16:33.610Z,100996.13
2022-09-26T00:19:02.226Z,100996.97
2022-09-26T00:21:30.505Z,100996.28
2022-09-26T00:23:58.956Z,100991.00
2022-09-26T00:26:27.718Z,100981.50
2022-09-26T00:28:56.618Z,100983.75
2022-09-26T00:31:30.370Z,100977.63
2022-09-26T00:33:58.074Z,100962.84
2022-09-26T00:36:36.890Z,100958.59
2022-09-26T00:39:09.982Z,100966.16
2022-09-26T00:41:38.864Z,100962.94
2022-09-26T00:44:37.396Z,100963.31
2022-09-26T00:47:05.662Z,100962.19
2022-09-26T00:49:37.192Z,100955.59
2022-09-26T00:52:06.877Z,100948.78
2022-09-26T00:54:35.177Z,100945.13
2022-09-26T00:57:07.189Z,100940.22
2022-09-26T00:59:39.301Z,100936.84
2022-09-26T01:02:07.191Z,100931.25
2022-09-26T01:04:36.085Z,100929.97
2022-09-26T01:07:07.740Z,100929.31
2022-09-26T01:09:35.576Z,100922.91
2022-09-26T01:12:04.517Z,100926.00
2022-09-26T01:14:32.693Z,100914.78
2022-09-26T01:17:00.461Z,100913.06
2022-09-26T01:19:40.367Z,100905.16
2022-09-26T01:22:16.266Z,100908.16
2022-09-26T01:25:10.162Z,100906.81
2022-09-26T01:27:46.978Z,100903.81
2022-09-26T01:30:26.751Z,100910.97
2022-09-26T01:33:07.763Z,100907.59
2022-09-26T01:36:04.953Z,100913.91
2022-09-26T01:39:23.157Z,100900.09
2022-09-26T01:42:06.157Z,100898.88
2022-09-26T01:44:52.958Z,100903.34
2022-09-26T01:47:44.155Z,100902.47
2022-09-26T01:50:36.175Z,100893.97
2022-09-26T01:53:12.354Z,100889.91
2022-09-26T01:55:56.521Z,100885.19
2022-09-26T01:58:27.771Z,100885.94
2022-09-26T02:00:58.236Z,100880.53
2022-09-26T02:03:28.578Z,100881.75
2022-09-26T02:06:00.581Z,100876.19
2022-09-26T02:08:43.498Z,100878.81
2022-09-26T02:11:17.337Z,100874.56
2022-09-26T02:13:44.967Z,100868.44
2022-09-26T02:16:17.920Z,100875.09
2022-09-26T02:18:58.890Z,100878.03
2022-09-26T02:21:28.149Z,100865.78
2022-09-26T02:23:55.668Z,100866.63
2022-09-26T02:26:23.507Z,100867.41
2022-09-26T02:28:52.541Z,100870.06
2022-09-26T02:31:23.204Z,100860.66
2022-09-26T02:33:51.286Z,100862.00
2022-09-26T02:36:19.371Z,100870.59
2022-09-26T02:38:47.040Z,100860.63
2022-09-26T02:42:02.678Z,100866.88
2022-09-26T02:45:07.750Z,100862.19
2022-09-26T02:48:04.573Z,100861.47
2022-09-26T02:50:49.500Z,100857.78
2022-09-26T02:53:43.910Z,100866.28
2022-09-26T02:56:31.143Z,100867.78
2022-09-26T02:59:13.634Z,100871.25
2022-09-26T03:02:11.928Z,100871.44
2022-09-26T03:04:57.803Z,100869.28
2022-09-26T03:07:32.828Z,100867.09
2022-09-26T03:10:00.931Z,100865.13
2022-09-26T03:12:28.654Z,100854.28
2022-09-26T03:14:58.857Z,100854.63
2022-09-26T03:17:29.175Z,100851.97
2022-09-26T03:20:03.348Z,100841.59
2022-09-26T03:22:34.176Z,100845.03
2022-09-26T03:25:02.105Z,100853.31
2022-09-26T03:27:32.191Z,100850.00
2022-09-26T03:29:59.958Z,100843.56
2022-09-26T03:32:29.034Z,100844.66
2022-09-26T03:34:57.535Z,100840.22
2022-09-26T03:37:25.136Z,100839.84
2022-09-26T03:39:52.868Z,100834.84
2022-09-26T03:42:25.774Z,100841.03
2022-09-26T03:44:54.956Z,100839.25
2022-09-26T03:47:32.687Z,100842.25
2022-09-26T03:50:00.461Z,100839.50
2022-09-26T03:52:28.701Z,100842.66
2022-09-26T03:54:56.281Z,100841.16
2022-09-26T03:57:23.899Z,100841.59
2022-09-26T03:59:57.264Z,100845.19
2022-09-26T04:02:30.516Z,100841.91
2022-09-26T04:05:13.271Z,100844.97
2022-09-26T04:07:40.945Z,100842.53
2022-09-26T04:10:09.036Z,100843.47
2022-09-26T04:12:38.109Z,100843.31
2022-09-26T04:15:07.295Z,100844.50
2022-09-26T04:17:36.992Z,100846.81
2022-09-26T04:20:05.299Z,100857.59
2022-09-26T04:22:34.441Z,100853.84
2022-09-26T04:25:02.121Z,100857.47
2022-09-26T04:27:30.248Z,100843.00
2022-09-26T04:29:57.770Z,100851.88
2022-09-26T04:32:41.702Z,100848.56
2022-09-26T04:35:35.305Z,100849.88
2022-09-26T04:38:04.947Z,100852.84
2022-09-26T04:40:34.174Z,100843.56
2022-09-26T04:43:08.458Z,100843.56
2022-09-26T04:45:36.333Z,100844.41
2022-09-26T04:48:04.040Z,100843.16
2022-09-26T04:50:54.459Z,100834.94
2022-09-26T04:53:23.348Z,100839.00
2022-09-26T04:56:05.222Z,100825.53
2022-09-26T04:58:33.071Z,100833.16
2022-09-26T05:01:05.051Z,100843.09
2022-09-26T05:03:44.910Z,100838.16
2022-09-26T05:06:13.417Z,100836.59
2022-09-26T05:08:46.612Z,100832.84
2022-09-26T05:11:16.298Z,100823.91
2022-09-26T05:13:45.113Z,100831.16
2022-09-26T05:16:14.600Z,100833.50
2022-09-26T05:18:43.454Z,100831.00
2022-09-26T05:21:11.108Z,100832.06
2022-09-26T05:23:57.212Z,100840.31
2022-09-26T05:26:37.765Z,100839.03
2022-09-26T05:29:08.726Z,100838.63
2022-09-26T05:31:46.895Z,100849.03
2022-09-26T05:34:19.815Z,100846.88
2022-09-26T05:36:48.714Z,100852.56
2022-09-26T05:39:37.825Z,100851.28
2022-09-26T05:42:09.486Z,100857.63
2022-09-26T05:44:39.990Z,100859.94
2022-09-26T05:47:09.105Z,100858.47
2022-09-26T05:49:38.186Z,100862.69
2022-09-26T05:52:05.933Z,100863.13
2022-09-26T05:54:33.933Z,100859.34
2022-09-26T05:57:07.359Z,100864.19
2022-09-26T05:59:45.321Z,100855.97
2022-09-26T06:02:20.874Z,100847.91
2022-09-26T06:05:07.460Z,100848.75
2022-09-26T06:07:39.123Z,100851.56
2022-09-26T06:10:11.581Z,100855.16
2022-09-26T06:12:47.588Z,100847.69
2022-09-26T06:15:17.825Z,100844.97
2022-09-26T06:17:45.629Z,100848.34
2022-09-26T06:20:13.312Z,100848.16
2022-09-26T06:22:41.585Z,100850.94
2022-09-26T06:25:10.060Z,100845.00
2022-09-26T06:27:38.848Z,100841.19
2022-09-26T06:30:10.885Z,100844.97
2022-09-26T06:32:41.813Z,100851.78
2022-09-26T06:35:21.878Z,100844.16
2022-09-26T06:38:08.164Z,100846.03
2022-09-26T06:40:36.573Z,100850.06
2022-09-26T06:43:04.432Z,100850.44
2022-09-26T06:45:50.419Z,100848.72
2022-09-26T06:48:25.766Z,100844.38
2022-09-26T06:51:00.661Z,100852.94
2022-09-26T06:53:31.122Z,100864.13
2022-09-26T06:55:59.962Z,100867.16
2022-09-26T06:58:28.101Z,100864.84
2022-09-26T07:01:06.829Z,100865.53
2022-09-26T07:03:54.470Z,100876.97
2022-09-26T07:06:42.035Z,100868.22
2022-09-26T07:09:12.188Z,100868.53
2022-09-26T07:14:43.733Z,100861.56
2022-09-26T07:17:21.005Z,100870.25
2022-09-26T07:20:18.193Z,100879.09
2022-09-26T07:22:55.637Z,100875.44
2022-09-26T07:25:23.289Z,100879.34
2022-09-26T07:27:51.819Z,100878.19
2022-09-26T07:30:23.552Z,100881.75
2022-09-26T07:33:07.310Z,100884.16
2022-09-26T07:35:44.543Z,100876.09
2022-09-26T07:38:13.324Z,100883.28
2022-09-26T07:40:43.374Z,100876.91
2022-09-26T07:43:20.722Z,100877.94
2022-09-26T07:46:13.600Z,100880.56
2022-09-26T07:49:04.509Z,100875.34
2022-09-26T07:51:55.061Z,100877.56
2022-09-26T07:54:25.712Z,100873.50
2022-09-26T07:57:12.740Z,100885.00
2022-09-26T07:59:52.138Z,100884.19
2022-09-26T08:02:34.271Z,100872.00
2022-09-26T08:05:05.226Z,100878.94
2022-09-26T08:07:35.658Z,100873.63
2022-09-26T08:10:22.101Z,100879.75
2022-09-26T08:13:22.114Z,100873.50
2022-09-26T08:16:15.436Z,100869.84
2022-09-26T08:18:45.381Z,100860.25
2022-09-26T08:21:13.260Z,100864.84
2022-09-26T08:23:59.592Z,100862.28
2022-09-26T08:26:45.721Z,100868.97
2022-09-26T08:29:39.301Z,100864.72
2022-09-26T08:32:06.968Z,100852.91
2022-09-26T08:34:36.633Z,100849.81
2022-09-26T08:37:28.186Z,100851.41
2022-09-26T08:40:23.382Z,100844.91
2022-09-26T08:43:11.430Z,100842.69
2022-09-26T08:46:12.335Z,100845.31
2022-09-26T08:49:06.849Z,100837.78
2022-09-26T08:51:39.054Z,100830.31
2022-09-26T08:54:13.271Z,100828.56
2022-09-26T08:56:44.313Z,100829.22
2022-09-26T08:59:14.609Z,100832.50
2022-09-26T09:01:42.827Z,100822.88
2022-09-26T09:04:23.719Z,100844.75
2022-09-26T09:06:55.036Z,100830.81
2022-09-26T09:09:24.076Z,100842.47
2022-09-26T09:12:32.409Z,100841.75
2022-09-26T09:15:33.484Z,100842.56
2022-09-26T09:18:33.142Z,100843.69
2022-09-26T09:21:38.040Z,100848.59
2022-09-26T09:24:36.749Z,100842.72
2022-09-26T09:30:19.042Z,100826.13
2022-09-26T09:33:27.807Z,100828.03
2022-09-26T09:36:43.694Z,100826.22
2022-09-26T09:39:40.751Z,100825.63
2022-09-26T09:42:46.110Z,100816.09
2022-09-26T09:45:16.173Z,100816.31
2022-09-26T09:47:44.930Z,100808.81
2022-09-26T09:50:15.211Z,100810.94
2022-09-26T09:52:47.747Z,100810.06
2022-09-26T09:55:21.453Z,100799.59
2022-09-26T09:57:58.437Z,100796.47
2022-09-26T10:00:28.509Z,100797.91
2022-09-26T10:03:20.270Z,100794.13
2022-09-26T10:05:53.641Z,100793.22
2022-09-26T10:08:37.144Z,100797.91
2022-09-26T10:11:41.914Z,100803.69
2022-09-26T10:14:35.425Z,100794.13
2022-09-26T10:17:12.140Z,100797.06
2022-09-26T10:20:04.730Z,100792.22
2022-09-26T10:22:45.121Z,100795.47
2022-09-26T10:25:25.784Z,100796.22
2022-09-26T10:27:55.369Z,100795.03
2022-09-26T10:30:30.659Z,100777.38
2022-09-26T10:33:06.683Z,100769.81
2022-09-26T10:36:05.101Z,100780.22
2022-09-26T10:39:09.281Z,100767.88
2022-09-26T10:41:41.467Z,100770.44
2022-09-26T10:44:25.997Z,100761.63
2022-09-26T10:47:31.589Z,100753.00
2022-09-26T10:50:19.515Z,100754.91
2022-09-26T10:53:08.534Z,100761.25
2022-09-26T10:55:44.713Z,100759.94
2022-09-26T10:58:18.720Z,100751.94
2022-09-26T11:00:50.735Z,100748.59
2022-09-26T11:03:22.923Z,100750.34
2022-09-26T11:06:33.387Z,100742.84
2022-09-26T11:09:22.394Z,100747.94
2022-09-26T11:11:56.499Z,100744.44
2022-09-26T11:14:32.770Z,100742.38
2022-09-26T11:17:12.138Z,100743.94
2022-09-26T11:19:54.826Z,100739.25
2022-09-26T11:22:31.959Z,100736.41
2022-09-26T11:25:07.291Z,100729.69
2022-09-26T11:27:46.945Z,100721.28
2022-09-26T11:30:22.099Z,100736.56
2022-09-26T11:32:58.142Z,100737.69
2022-09-26T11:35:56.897Z,100728.22
2022-09-26T11:38:42.051Z,100732.44
2022-09-26T11:41:38.454Z,100724.34
2022-09-26T11:44:33.847Z,100715.75
2022-09-26T11:47:37.057Z,100717.38
2022-09-26T11:50:40.342Z,100714.03
2022-09-26T11:53:22.465Z,100714.50
2022-09-26T11:56:29.943Z,100707.25
2022-09-26T11:59:00.771Z,100700.13
2022-09-26T12:01:56.011Z,100692.78
2022-09-26T12:04:38.938Z,100702.63
2022-09-26T12:07:22.615Z,100704.03
2022-09-26T12:10:06.524Z,100698.66
2022-09-26T12:12:41.992Z,100706.81
2022-09-26T12:15:22.100Z,100701.63
2022-09-26T12:17:52.682Z,100711.97
2022-09-26T12:20:20.070Z,100710.59
2022-09-26T12:23:20.271Z,100719.06
2022-09-26T12:26:00.878Z,100709.78
2022-09-26T12:28:35.034Z,100712.47
2022-09-26T12:31:09.767Z,100716.09
2022-09-26T12:33:46.475Z,100718.31
2022-09-26T12:36:31.428Z,100713.78
2022-09-26T12:39:15.659Z,100715.44
2022-09-26T12:42:11.169Z,100717.94
2022-09-26T12:44:48.398Z,100716.66
2022-09-26T12:47:39.910Z,100712.00
2022-09-26T12:50:36.570Z,100705.94
2022-09-26T12:53:19.367Z,100699.78
2022-09-26T12:55:54.319Z,100694.16
2022-09-26T12:58:38.082Z,100688.56
2022-09-26T13:01:15.186Z,100688.81
2022-09-26T13:04:14.298Z,100677.13
2022-09-26T13:07:07.696Z,100682.56
2022-09-26T13:09:57.758Z,100683.19
2022-09-26T13:12:40.681Z,100681.69
2022-09-26T13:15:23.471Z,100687.63
2022-09-26T13:18:25.810Z,100690.28
2022-09-26T13:21:07.751Z,100695.59
2022-09-26T13:23:53.983Z,100690.50
2022-09-26T13:26:48.587Z,100682.78
2022-09-26T13:29:20.606Z,100687.69
2022-09-26T13:32:15.949Z,100682.34
2022-09-26T13:34:47.381Z,100693.31
2022-09-26T13:37:47.948Z,100684.75
2022-09-26T13:40:53.297Z,100673.25
2022-09-26T13:43:33.683Z,100672.75
2022-09-26T13:46:16.839Z,100683.16
2022-09-26T13:49:13.559Z,100682.22
2022-09-26T13:51:49.711Z,100682.22
2022-09-26T13:54:44.210Z,100682.06
2022-09-26T13:57:50.110Z,100678.94
2022-09-26T14:00:30.434Z,100682.78
2022-09-26T14:03:16.838Z,100674.03
2022-09-26T14:05:47.059Z,100681.38
2022-09-26T14:08:52.496Z,100669.94
2022-09-26T14:11:35.365Z,100677.78
2022-09-26T14:14:18.159Z,100674.31
2022-09-26T14:16:55.686Z,100667.38
2022-09-26T14:19:49.181Z,100669.34
2022-09-26T14:22:20.617Z,100666.75
2022-09-26T14:24:48.905Z,100672.22
2022-09-26T14:27:17.003Z,100668.97
2022-09-26T14:29:52.074Z,100662.19
2022-09-26T14:32:20.934Z,100654.06
2022-09-26T14:35:03.021Z,100653.56
2022-09-26T14:37:30.615Z,100667.06
2022-09-26T14:40:10.793Z,100664.00
2022-09-26T14:42:42.154Z,100665.00
2022-09-26T14:45:44.502Z,100680.63
2022-09-26T14:48:12.058Z,100687.31
2022-09-26T14:51:03.623Z,100687.09
2022-09-26T14:53:41.631Z,100689.00
2022-09-26T14:56:29.362Z,100684.38
2022-09-26T14:59:24.851Z,100693.28
2022-09-26T15:01:53.288Z,100692.91
2022-09-26T15:04:30.410Z,100687.47
2022-09-26T15:07:01.794Z,100688.66
2022-09-26T15:09:51.240Z,100688.03
2022-09-26T15:12:40.849Z,100690.25
2022-09-26T15:15:17.472Z,100678.13
2022-09-26T15:17:49.983Z,100672.50
2022-09-26T15:20:20.147Z,100655.44
2022-09-26T15:22:48.112Z,100658.13
2022-09-26T15:25:18.545Z,100671.25
2022-09-26T15:27:51.240Z,100666.06
2022-09-26T15:30:20.580Z,100665.94
2022-09-26T15:32:49.370Z,100670.22
2022-09-26T15:35:17.176Z,100674.91
2022-09-26T15:37:45.999Z,100677.63
2022-09-26T15:40:27.577Z,100674.59
2022-09-26T15:43:08.137Z,100660.34
2022-09-26T15:45:48.998Z,100645.91
2022-09-26T15:48:19.463Z,100644.25
2022-09-26T15:50:48.899Z,100657.16
2022-09-26T15:53:25.554Z,100677.47
2022-09-26T15:55:55.960Z,100671.50
2022-09-26T15:58:47.012Z,100676.41
2022-09-26T16:01:19.241Z,100671.59
2022-09-26T16:04:04.007Z,100664.03
2022-09-26T16:06:41.960Z,100666.09
2022-09-26T16:09:22.080Z,100662.88
2022-09-26T16:11:54.553Z,100658.41
2022-09-26T16:14:26.985Z,100662.78
2022-09-26T16:17:15.936Z,100663.38
2022-09-26T16:19:47.671Z,100661.47
2022-09-26T16:22:45.673Z,100659.16
2022-09-26T16:25:19.428Z,100647.91
2022-09-26T16:27:49.564Z,100656.66
2022-09-26T16:30:23.897Z,100653.19
2022-09-26T16:32:52.950Z,100643.94
2022-09-26T16:35:28.610Z,100641.25
2022-09-26T16:38:05.666Z,100628.75
2022-09-26T16:40:34.729Z,100634.56
2022-09-26T16:43:27.324Z,100626.34
2022-09-26T16:46:10.198Z,100626.34
2022-09-26T16:48:42.119Z,100627.91
2022-09-26T16:51:13.719Z,100622.63
2022-09-26T16:53:49.021Z,100626.28
2022-09-26T16:56:17.676Z,100627.75
2022-09-26T16:59:04.250Z,100628.19
2022-09-26T17:01:50.654Z,100634.41
2022-09-26T17:04:19.675Z,100635.78
2022-09-26T17:06:47.573Z,100638.53
2022-09-26T17:09:28.395Z,100637.22
2022-09-26T17:12:06.561Z,100630.72
2022-09-26T17:14:40.420Z,100632.84
2022-09-26T17:17:16.564Z,100634.06
2022-09-26T17:19:46.355Z,100622.00
2022-09-26T17:22:14.962Z,100613.34
2022-09-26T17:24:43.131Z,100614.47
2022-09-26T17:27:13.982Z,100609.66
2022-09-26T17:29:44.295Z,100601.75
2022-09-26T17:32:23.893Z,100604.84
2022-09-26T17:34:51.824Z,100606.94
2022-09-26T17:37:20.420Z,100610.03
2022-09-26T17:39:48.283Z,100606.63
2022-09-26T17:42:17.362Z,100612.13
2022-09-26T17:44:48.344Z,100604.09
2022-09-26T17:47:16.515Z,100599.28
2022-09-26T17:49:52.452Z,100605.81
2022-09-26T17:52:29.375Z,100600.06
2022-09-26T17:55:02.458Z,100608.09
2022-09-26T17:57:30.424Z,100604.66
2022-09-26T17:59:58.143Z,100602.09
2022-09-26T18:02:42.741Z,100612.63
2022-09-26T18:05:19.580Z,100609.34
2022-09-26T18:07:47.468Z,100592.19
2022-09-26T18:10:23.464Z,100587.50
2022-09-26T18:12:57.928Z,100577.34
2022-09-26T18:15:25.893Z,100578.19
2022-09-26T18:17:55.487Z,100578.81
2022-09-26T18:20:27.327Z,100579.91
2022-09-26T18:22:54.889Z,100579.91
2022-09-26T18:25:24.081Z,100586.22
2022-09-26T18:27:53.440Z,100588.59
2022-09-26T18:30:21.368Z,100586.91
2022-09-26T18:32:55.105Z,100589.66
2022-09-26T18:35:27.370Z,100584.91
2022-09-26T18:37:55.914Z,100593.03
2022-09-26T18:40:24.132Z,100586.47
2022-09-26T18:42:54.937Z,100584.56
2022-09-26T18:45:32.923Z,100573.75
2022-09-26T18:48:05.162Z,100567.25
2022-09-26T18:50:37.667Z,100565.31
2022-09-26T18:53:11.102Z,100558.78
2022-09-26T18:55:57.281Z,100566.88
2022-09-26T18:58:25.459Z,100577.44
2022-09-26T19:00:56.704Z,100579.94
2022-09-26T19:03:24.889Z,100589.28
2022-09-26T19:05:54.975Z,100584.91
2022-09-26T19:08:39.585Z,100573.25
2022-09-26T19:11:14.855Z,100563.28
2022-09-26T19:13:49.771Z,100571.16
2022-09-26T19:16:17.416Z,100570.34
2022-09-26T19:18:46.275Z,100558.06
2022-09-26T19:21:46.703Z,100556.25
2022-09-26T19:24:26.441Z,100548.00
2022-09-26T19:27:09.813Z,100538.44
2022-09-26T19:29:39.265Z,100531.38
2022-09-26T19:32:15.656Z,100543.34
2022-09-26T19:34:46.120Z,100537.59
2022-09-26T19:37:14.227Z,100540.16
2022-09-26T19:39:41.802Z,100541.00
2022-09-26T19:42:09.923Z,100533.66
2022-09-26T19:44:37.490Z,100536.19
2022-09-26T19:47:05.128Z,100543.38
2022-09-26T19:49:32.853Z,100529.06
2022-09-26T19:52:02.622Z,100530.75
2022-09-26T19:54:30.704Z,100524.41
2022-09-26T19:56:58.889Z,100534.28
2022-09-26T19:59:27.676Z,100532.81
2022-09-26T20:01:56.268Z,100523.88
2022-09-26T20:04:24.156Z,100523.97
2022-09-26T20:06:51.732Z,100526.22
2022-09-26T20:09:19.675Z,100531.97
2022-09-26T20:11:47.426Z,100517.38
2022-09-26T20:14:23.950Z,100521.81
2022-09-26T20:16:56.886Z,100519.28
2022-09-26T20:19:31.009Z,100522.25
2022-09-26T20:22:03.050Z,100533.28
2022-09-26T20:24:31.556Z,100526.22
2022-09-26T20:27:01.090Z,100522.66
2022-09-26T20:29:28.812Z,100533.59
2022-09-26T20:31:56.679Z,100527.03
2022-09-26T20:34:25.769Z,100526.59
2022-09-26T20:36:53.551Z,100514.13
2022-09-26T20:39:25.434Z,100512.63
2022-09-26T20:41:53.029Z,100513.16
2022-09-26T20:44:21.716Z,100510.19
2022-09-26T20:46:50.778Z,100503.00
2022-09-26T20:49:22.221Z,100501.25
2022-09-26T20:51:50.071Z,100499.56
2022-09-26T20:54:27.699Z,100497.81
2022-09-26T20:56:55.537Z,100508.81
2022-09-26T20:59:23.992Z,100505.00
2022-09-26T21:01:52.204Z,100500.81
2022-09-26T21:04:20.831Z,100492.28
2022-09-26T21:06:48.489Z,100495.75
2022-09-26T21:09:18.530Z,100485.94
2022-09-26T21:11:48.300Z,100484.69
2022-09-26T21:14:17.052Z,100482.28
2022-09-26T21:16:48.585Z,100492.69
2022-09-26T21:19:19.735Z,100489.69
2022-09-26T21:21:49.993Z,100492.25
2022-09-26T21:24:29.906Z,100487.94
2022-09-26T21:26:57.997Z,100486.94
2022-09-26T21:29:25.476Z,100471.28
2022-09-26T21:31:53.614Z,100473.44
2022-09-26T21:34:22.599Z,100480.38
2022-09-26T21:36:51.583Z,100476.09
2022-09-26T21:39:19.638Z,100475.72
2022-09-26T21:41:48.649Z,100466.47
2022-09-26T21:44:28.255Z,100461.97
2022-09-26T21:46:55.812Z,100453.91
2022-09-26T21:49:23.422Z,100454.06
2022-09-26T21:51:54.617Z,100449.41
2022-09-26T21:54:25.110Z,100439.78
2022-09-26T21:56:55.038Z,100438.53
2022-09-26T21:59:22.925Z,100433.88
2022-09-26T22:01:50.812Z,100440.84
2022-09-26T22:04:19.159Z,100432.81
2022-09-26T22:06:46.664Z,100429.63
2022-09-26T22:09:14.933Z,100424.56
2022-09-26T22:11:43.220Z,100414.38
2022-09-26T22:14:10.728Z,100414.72
2022-09-26T22:16:38.319Z,100412.72
2022-09-26T22:19:07.009Z,100416.53
2022-09-26T22:21:35.543Z,100408.50
2022-09-26T22:24:03.241Z,100414.78
2022-09-26T22:26:30.768Z,100411.47
2022-09-26T22:28:58.241Z,100407.66
2022-09-26T22:31:25.831Z,100409.13
2022-09-26T22:33:58.324Z,100401.41
2022-09-26T22:36:27.486Z,100408.13
2022-09-26T22:38:55.121Z,100404.00
2022-09-26T22:41:24.977Z,100396.41
2022-09-26T22:43:53.172Z,100386.03
2022-09-26T22:46:21.732Z,100388.63
2022-09-26T22:48:49.372Z,100393.75
2022-09-26T22:51:17.148Z,100399.84
2022-09-26T22:53:45.032Z,100399.25
2022-09-26T22:56:13.697Z,100396.75
2022-09-26T22:58:51.312Z,100388.84
2022-09-26T23:01:25.308Z,100388.69
2022-09-26T23:03:55.788Z,100383.13
2022-09-26T23:06:23.441Z,100378.44
2022-09-26T23:08:51.572Z,100368.75
2022-09-26T23:11:19.704Z,100365.91
2022-09-26T23:13:50.239Z,100369.59
2022-09-26T23:16:20.770Z,100368.06
2022-09-26T23:18:49.104Z,100354.75
2022-09-26T23:21:18.487Z,100346.25
2022-09-26T23:23:48.177Z,100353.66
2022-09-26T23:26:21.684Z,100349.25
2022-09-26T23:28:52.938Z,100343.97
2022-09-26T23:31:20.760Z,100347.09
2022-09-26T23:33:48.694Z,100338.47
2022-09-26T23:36:16.556Z,100334.97
2022-09-26T23:38:45.274Z,100334.13
2022-09-26T23:41:12.938Z,100328.63
2022-09-26T23:43:40.733Z,100319.41
2022-09-26T23:46:08.527Z,100323.59
2022-09-26T23:48:36.444Z,100310.97
2022-09-26T23:51:05.633Z,100318.56
2022-09-26T23:53:34.042Z,100314.31
2022-09-26T23:56:05.236Z,100314.78
2022-09-26T23:58:32.881Z,100315.63
